createdAt,value
2019-05-03T00:02:26.931Z,15.33
2019-05-03T00:05:21.961Z,14.63
2019-05-03T00:07:55.194Z,16.30
2019-05-03T00:10:25.459Z,14.93
2019-05-03T00:12:55.756Z,18.93
2019-05-03T00:15:44.773Z,16.03
2019-05-03T02:05:13.686Z,16.82
2019-05-03T02:07:44.273Z,18.90
2019-05-03T02:10:14.717Z,16.17
2019-05-03T02:12:45.221Z,20.60
2019-05-03T02:15:15.642Z,16.37
2019-05-03T02:17:46.078Z,13.17
2019-05-03T02:20:16.660Z,17.07
2019-05-03T02:22:47.043Z,16.90
2019-05-03T02:25:17.438Z,13.50
2019-05-03T02:27:47.648Z,14.93
2019-05-03T02:30:17.923Z,19.70
2019-05-03T02:32:48.327Z,13.47
2019-05-03T02:35:18.927Z,13.97
2019-05-03T02:37:53.610Z,17.47
2019-05-03T02:40:25.113Z,17.87
2019-05-03T02:43:26.372Z,15.93
2019-05-03T02:46:16.840Z,13.40
2019-05-03T02:48:55.708Z,15.10
2019-05-03T02:51:26.427Z,15.70
2019-05-03T02:53:57.266Z,13.73
2019-05-03T02:56:27.617Z,15.43
2019-05-03T02:58:57.664Z,16.27
2019-05-03T03:01:27.801Z,14.20
2019-05-03T03:03:58.162Z,18.13
2019-05-03T03:06:28.683Z,20.80
2019-05-03T03:08:59.348Z,16.10
2019-05-03T03:11:30.335Z,14.17
2019-05-03T03:14:00.363Z,17.20
2019-05-03T03:16:30.727Z,21.97
2019-05-03T03:19:01.419Z,21.42
2019-05-03T03:21:36.046Z,26.07
2019-05-03T03:24:12.181Z,23.97
2019-05-03T03:26:47.096Z,23.25
2019-05-03T03:29:17.219Z,24.63
2019-05-03T03:32:29.023Z,26.02
2019-05-03T03:35:11.794Z,26.15
2019-05-03T03:37:41.630Z,23.20
2019-05-03T03:40:11.614Z,25.57
2019-05-03T03:42:42.114Z,27.35
2019-05-03T03:45:12.252Z,20.43
2019-05-03T03:47:42.486Z,22.37
2019-05-03T03:50:15.049Z,27.42
2019-05-03T03:52:45.229Z,23.00
2019-05-03T03:55:16.301Z,24.10
2019-05-03T03:57:46.979Z,24.23
2019-05-03T04:00:17.133Z,22.77
2019-05-03T04:02:47.163Z,25.55
2019-05-03T04:05:17.260Z,24.30
2019-05-03T04:07:47.514Z,22.98
2019-05-03T04:10:17.599Z,22.52
2019-05-03T04:12:48.437Z,27.85
2019-05-03T04:15:29.742Z,25.27
2019-05-03T04:18:09.607Z,28.32
2019-05-03T04:20:39.748Z,25.57
2019-05-03T04:23:09.878Z,22.77
2019-05-03T04:25:39.944Z,23.12
2019-05-03T04:28:10.208Z,23.27
2019-05-03T04:30:40.320Z,22.32
2019-05-03T04:33:10.489Z,25.17
2019-05-03T04:35:40.654Z,21.75
2019-05-03T04:38:10.655Z,20.60
2019-05-03T04:40:41.302Z,19.40
2019-05-03T04:43:11.391Z,20.70
2019-05-03T04:45:42.352Z,20.25
2019-05-03T04:48:12.665Z,19.20
2019-05-03T04:50:45.471Z,21.40
2019-05-03T04:53:16.234Z,18.82
2019-05-03T04:55:47.061Z,21.07
2019-05-03T04:58:17.319Z,19.47
2019-05-03T05:00:47.542Z,21.43
2019-05-03T05:03:18.266Z,18.67
2019-05-03T05:05:48.714Z,18.43
2019-05-03T05:08:18.785Z,19.50
2019-05-03T05:10:49.120Z,18.00
2019-05-03T05:13:19.163Z,20.12
2019-05-03T05:15:49.243Z,18.12
2019-05-03T05:18:31.394Z,21.27
2019-05-03T05:21:08.887Z,19.30
2019-05-03T05:23:57.699Z,19.75
2019-05-03T05:26:32.478Z,18.33
2019-05-03T05:29:06.887Z,21.35
2019-05-03T05:31:37.143Z,19.62
2019-05-03T05:34:08.940Z,22.07
2019-05-03T05:36:39.173Z,24.43
2019-05-03T05:39:10.362Z,20.10
2019-05-03T05:41:40.443Z,19.32
2019-05-03T05:44:10.587Z,21.17
2019-05-03T05:47:04.589Z,19.75
2019-05-03T05:50:09.165Z,16.75
2019-05-03T05:52:39.315Z,17.65
2019-05-03T05:55:26.903Z,18.95
2019-05-03T05:58:21.936Z,19.87
2019-05-03T06:00:59.068Z,19.82
2019-05-03T06:03:29.742Z,19.80
2019-05-03T06:06:01.810Z,19.32
2019-05-03T06:08:41.578Z,17.00
2019-05-03T06:11:34.768Z,17.98
2019-05-03T06:14:11.159Z,18.00
2019-05-03T06:16:48.022Z,16.55
2019-05-03T06:19:44.769Z,18.30
2019-05-03T06:22:28.100Z,20.60
2019-05-03T06:25:06.170Z,17.73
2019-05-03T06:27:37.366Z,18.32
2019-05-03T06:30:40.998Z,16.55
2019-05-03T06:33:11.011Z,15.63
2019-05-03T06:35:41.086Z,15.98
2019-05-03T06:38:11.122Z,19.15
2019-05-03T06:40:41.187Z,17.75
2019-05-03T06:43:12.867Z,15.30
2019-05-03T06:45:46.653Z,17.20
2019-05-03T06:48:17.266Z,17.70
2019-05-03T06:50:46.239Z,19.55
2019-05-03T06:53:16.230Z,18.80
2019-05-03T06:55:48.490Z,17.90
2019-05-03T06:58:30.470Z,19.27
2019-05-03T07:01:15.438Z,19.55
2019-05-03T07:04:10.437Z,16.75
2019-05-03T07:06:58.030Z,17.83
2019-05-03T07:09:32.859Z,16.90
2019-05-03T07:12:04.495Z,18.48
2019-05-03T07:14:35.008Z,15.83
2019-05-03T07:17:05.641Z,12.23
2019-05-03T07:19:35.822Z,11.28
2019-05-03T07:22:05.822Z,15.87
2019-05-03T07:24:40.672Z,10.18
2019-05-03T07:27:07.547Z,12.25
2019-05-03T07:29:37.607Z,11.35
2019-05-03T07:32:07.574Z,21.40
2019-05-03T07:34:37.642Z,9.63
2019-05-03T07:37:07.666Z,16.02
2019-05-03T07:39:37.654Z,10.10
2019-05-03T07:42:07.634Z,18.35
2019-05-03T07:44:37.626Z,10.00
2019-05-03T07:47:07.612Z,8.95
2019-05-03T07:49:37.626Z,11.93
2019-05-03T07:52:11.606Z,12.33
2019-05-03T07:54:42.414Z,8.75
2019-05-03T07:57:35.754Z,6.25
2019-05-03T08:00:06.310Z,8.00
2019-05-03T08:02:36.482Z,6.07
2019-05-03T08:05:06.682Z,7.50
2019-05-03T08:07:36.718Z,5.62
2019-05-03T08:10:06.786Z,8.13
2019-05-03T08:12:36.850Z,5.20
2019-05-03T08:15:06.841Z,3.67
2019-05-03T08:17:38.187Z,4.40
2019-05-03T08:20:08.348Z,7.67
2019-05-03T08:22:38.369Z,5.45
2019-05-03T08:25:08.441Z,7.78
2019-05-03T08:27:38.529Z,8.07
2019-05-03T08:30:10.170Z,9.25
2019-05-03T08:33:05.557Z,9.30
2019-05-03T08:35:38.526Z,6.77
2019-05-03T08:38:08.558Z,10.03
2019-05-03T08:40:45.927Z,5.27
2019-05-03T08:43:15.986Z,5.10
2019-05-03T08:45:46.560Z,4.37
2019-05-03T08:48:16.603Z,6.53
2019-05-03T08:50:46.599Z,6.13
2019-05-03T08:53:16.669Z,6.33
2019-05-03T08:55:46.763Z,6.57
2019-05-03T08:58:16.759Z,3.90
2019-05-03T09:00:46.774Z,6.87
2019-05-03T09:03:16.763Z,6.87
2019-05-03T09:05:46.863Z,8.97
2019-05-03T09:08:16.877Z,6.07
2019-05-03T09:11:00.479Z,5.00
2019-05-03T09:13:47.471Z,5.00
2019-05-03T09:16:17.528Z,5.93
2019-05-03T09:18:47.707Z,4.60
2019-05-03T09:21:17.695Z,6.87
2019-05-03T09:23:47.655Z,20.55
2019-05-03T09:26:17.706Z,3.97
2019-05-03T09:28:47.689Z,8.05
2019-05-03T09:31:17.738Z,3.65
2019-05-03T09:33:47.734Z,7.58
2019-05-03T09:36:17.733Z,4.75
2019-05-03T09:38:47.698Z,3.83
2019-05-03T09:41:18.631Z,7.13
2019-05-03T09:43:48.616Z,3.90
2019-05-03T09:46:18.722Z,11.13
2019-05-03T09:48:48.698Z,11.80
2019-05-03T09:51:18.782Z,6.63
2019-05-03T09:53:55.466Z,10.77
2019-05-03T09:56:52.922Z,8.23
2019-05-03T09:59:15.230Z,8.27
2019-05-03T10:01:45.761Z,7.33
2019-05-03T10:04:18.030Z,6.53
2019-05-03T10:06:48.733Z,4.43
2019-05-03T10:09:18.823Z,11.55
2019-05-03T10:11:48.811Z,4.58
2019-05-03T10:14:18.842Z,4.13
2019-05-03T10:17:10.592Z,2.73
2019-05-03T10:19:40.620Z,3.93
2019-05-03T10:22:11.622Z,10.50
2019-05-03T10:24:41.768Z,1.92
2019-05-03T10:27:11.842Z,2.67
2019-05-03T10:29:41.808Z,3.37
2019-05-03T10:32:35.479Z,2.72
2019-05-03T10:35:08.014Z,4.78
2019-05-03T10:37:38.104Z,9.27
2019-05-03T10:40:08.674Z,18.27
2019-05-03T10:42:38.777Z,11.43
2019-05-03T10:45:08.851Z,2.77
2019-05-03T10:47:38.930Z,7.37
2019-05-03T10:50:09.006Z,4.37
2019-05-03T10:52:44.632Z,6.33
2019-05-03T10:55:15.909Z,4.17
2019-05-03T10:57:48.943Z,15.67
2019-05-03T11:00:44.296Z,3.83
2019-05-03T11:02:59.019Z,3.10
2019-05-03T11:05:29.022Z,6.30
2019-05-03T11:07:59.011Z,4.97
2019-05-03T11:10:28.983Z,4.47
2019-05-03T11:12:59.029Z,9.70
2019-05-03T11:15:28.981Z,9.17
2019-05-03T11:17:59.022Z,6.47
2019-05-03T11:20:35.462Z,7.37
2019-05-03T11:23:06.997Z,4.27
2019-05-03T11:25:37.052Z,11.80
2019-05-03T11:28:12.907Z,6.73
2019-05-03T11:30:53.068Z,6.47
2019-05-03T11:33:24.673Z,10.20
2019-05-03T11:36:11.805Z,7.13
2019-05-03T11:38:45.601Z,6.37
2019-05-03T11:41:29.210Z,9.63
2019-05-03T11:43:47.650Z,16.93
2019-05-03T11:46:17.690Z,10.70
2019-05-03T11:48:47.680Z,7.60
2019-05-03T11:51:17.630Z,8.73
2019-05-03T11:53:47.618Z,9.17
2019-05-03T11:56:17.620Z,12.70
2019-05-03T11:58:47.674Z,8.23
2019-05-03T12:01:25.430Z,7.30
2019-05-03T12:03:58.475Z,7.07
2019-05-03T12:06:28.452Z,14.90
2019-05-03T12:08:58.602Z,11.87
2019-05-03T12:11:30.570Z,5.50
2019-05-03T12:14:15.231Z,4.03
2019-05-03T12:19:29.996Z,15.30
2019-05-03T12:21:55.321Z,22.67
2019-05-03T12:24:26.786Z,18.43
2019-05-03T12:26:57.198Z,9.17
2019-05-03T12:29:27.254Z,14.97
2019-05-03T12:31:57.210Z,10.27
2019-05-03T12:34:27.191Z,9.33
2019-05-03T12:36:57.178Z,11.37
2019-05-03T12:39:30.241Z,7.77
2019-05-03T12:41:58.859Z,11.37
2019-05-03T12:44:28.898Z,11.83
2019-05-03T12:47:02.475Z,31.57
2019-05-03T12:49:31.479Z,7.07
2019-05-03T12:52:02.520Z,26.17
2019-05-03T12:54:32.614Z,20.80
2019-05-03T12:57:02.591Z,18.70
2019-05-03T12:59:47.440Z,20.13
2019-05-03T13:02:32.210Z,27.90
2019-05-03T13:05:02.198Z,13.57
2019-05-03T13:07:37.716Z,12.10
2019-05-03T13:10:08.197Z,5.20
2019-05-03T13:12:49.682Z,3.33
2019-05-03T13:15:10.314Z,17.67
2019-05-03T13:17:40.292Z,11.73
2019-05-03T13:20:12.014Z,31.03
2019-05-03T13:22:42.156Z,5.60
2019-05-03T13:25:12.200Z,6.03
2019-05-03T13:27:42.188Z,8.17
2019-05-03T13:30:12.179Z,4.77
2019-05-03T13:32:42.151Z,19.17
2019-05-03T13:35:12.235Z,5.73
2019-05-03T13:37:42.202Z,9.53
2019-05-03T13:40:12.358Z,22.20
2019-05-03T13:42:54.287Z,15.00
2019-05-03T13:45:14.078Z,16.20
2019-05-03T13:47:44.703Z,21.53
2019-05-03T13:50:15.255Z,18.30
2019-05-03T13:52:45.429Z,23.30
2019-05-03T13:55:16.569Z,8.37
2019-05-03T13:57:46.534Z,20.00
2019-05-03T14:00:16.579Z,8.03
2019-05-03T14:02:46.706Z,12.23
2019-05-03T14:05:16.783Z,4.83
2019-05-03T14:07:46.835Z,7.77
2019-05-03T14:10:17.528Z,35.57
2019-05-03T14:12:47.574Z,20.70
2019-05-03T14:15:17.575Z,17.63
2019-05-03T14:17:47.550Z,53.60
2019-05-03T14:20:42.346Z,13.23
2019-05-03T14:23:14.730Z,29.67
2019-05-03T14:25:44.634Z,6.87
2019-05-03T14:28:14.858Z,6.03
2019-05-03T14:30:45.535Z,8.30
2019-05-03T14:33:15.588Z,20.70
2019-05-03T14:35:45.641Z,9.00
2019-05-03T14:38:15.664Z,5.93
2019-05-03T14:40:47.331Z,9.60
2019-05-03T14:43:17.546Z,7.30
2019-05-03T14:45:47.529Z,10.13
2019-05-03T14:48:17.635Z,11.03
2019-05-03T14:50:47.790Z,20.00
2019-05-03T14:53:17.750Z,7.80
2019-05-03T14:55:52.725Z,6.30
2019-05-03T14:58:56.738Z,6.23
2019-05-03T15:01:34.743Z,6.37
2019-05-03T15:04:05.845Z,12.27
2019-05-03T15:06:36.082Z,5.90
2019-05-03T15:09:07.910Z,2.67
2019-05-03T15:11:38.251Z,8.67
2019-05-03T15:14:08.298Z,8.13
2019-05-03T15:16:38.282Z,13.03
2019-05-03T15:19:08.247Z,9.33
2019-05-03T15:21:39.314Z,24.27
2019-05-03T15:24:09.346Z,19.20
2019-05-03T15:26:39.403Z,5.60
2019-05-03T15:29:09.363Z,11.33
2019-05-03T15:31:39.356Z,8.63
2019-05-03T15:34:09.428Z,4.63
2019-05-03T15:36:40.482Z,5.00
2019-05-03T15:39:10.443Z,4.00
2019-05-03T15:41:40.505Z,7.87
2019-05-03T15:44:20.322Z,6.87
2019-05-03T15:46:55.034Z,4.30
2019-05-03T15:49:27.543Z,6.57
2019-05-03T15:51:56.856Z,27.67
2019-05-03T15:54:27.905Z,5.10
2019-05-03T15:56:58.128Z,4.47
2019-05-03T15:59:28.182Z,8.70
2019-05-03T16:01:58.170Z,8.77
2019-05-03T16:04:28.214Z,9.00
2019-05-03T16:06:58.196Z,5.53
2019-05-03T16:09:28.153Z,5.33
2019-05-03T16:11:58.147Z,2.90
2019-05-03T16:14:28.685Z,6.43
2019-05-03T16:16:58.682Z,9.23
2019-05-03T16:19:28.639Z,4.70
2019-05-03T16:21:58.619Z,5.27
2019-05-03T16:24:28.578Z,5.30
2019-05-03T16:27:24.802Z,10.30
2019-05-03T16:29:54.990Z,6.90
2019-05-03T16:32:25.047Z,7.23
2019-05-03T16:34:55.078Z,5.53
2019-05-03T16:37:25.440Z,7.63
2019-05-03T16:39:57.912Z,9.93
2019-05-03T16:42:28.135Z,6.63
2019-05-03T16:44:58.120Z,6.03
2019-05-03T16:47:28.180Z,5.17
2019-05-03T16:49:58.225Z,3.53
2019-05-03T16:52:28.335Z,6.37
2019-05-03T16:54:59.376Z,7.87
2019-05-03T16:57:29.439Z,5.57
2019-05-03T16:59:59.427Z,6.43
2019-05-03T17:02:29.418Z,5.20
2019-05-03T17:05:07.403Z,7.53
2019-05-03T17:07:48.213Z,7.50
2019-05-03T17:10:34.841Z,5.17
2019-05-03T17:13:05.515Z,6.77
2019-05-03T17:15:35.684Z,3.97
2019-05-03T17:18:05.750Z,9.13
2019-05-03T17:20:35.708Z,5.87
2019-05-03T17:23:07.081Z,6.83
2019-05-03T17:25:37.562Z,8.07
2019-05-03T17:28:07.562Z,5.10
2019-05-03T17:30:37.531Z,10.37
2019-05-03T17:33:07.571Z,5.80
2019-05-03T17:35:37.535Z,7.27
2019-05-03T17:38:07.583Z,7.23
2019-05-03T17:40:58.179Z,8.47
2019-05-03T17:43:31.594Z,4.73
2019-05-03T17:46:01.678Z,6.60
2019-05-03T17:48:31.655Z,12.03
2019-05-03T17:51:01.817Z,7.93
2019-05-03T17:53:49.929Z,8.00
2019-05-03T17:56:42.033Z,7.77
2019-05-03T17:59:29.606Z,10.70
2019-05-03T18:02:18.202Z,6.10
2019-05-03T18:05:16.498Z,6.67
2019-05-03T18:08:04.271Z,4.93
2019-05-03T18:10:35.538Z,5.17
2019-05-03T18:13:05.497Z,7.90
2019-05-03T18:15:35.546Z,5.20
2019-05-03T18:18:05.522Z,5.47
2019-05-03T18:20:35.572Z,12.17
2019-05-03T18:23:05.671Z,5.90
2019-05-03T18:25:38.404Z,3.70
2019-05-03T18:28:07.751Z,9.50
2019-05-03T18:30:38.027Z,4.43
2019-05-03T18:33:08.367Z,7.63
2019-05-03T18:35:38.463Z,7.77
2019-05-03T18:38:08.624Z,10.93
2019-05-03T18:40:38.909Z,10.37
2019-05-03T18:43:14.996Z,4.13
2019-05-03T18:46:16.182Z,6.13
2019-05-03T18:48:46.438Z,7.53
2019-05-03T18:51:16.659Z,7.50
2019-05-03T18:53:46.682Z,7.30
2019-05-03T18:56:16.849Z,7.73
2019-05-03T18:58:46.906Z,5.70
2019-05-03T19:01:17.351Z,13.23
2019-05-03T19:03:49.434Z,6.40
2019-05-03T19:06:19.413Z,7.27
2019-05-03T19:09:20.375Z,9.23
2019-05-03T19:12:15.509Z,8.13
2019-05-03T19:14:46.190Z,6.63
2019-05-03T19:17:41.574Z,7.23
2019-05-03T19:20:16.846Z,12.47
2019-05-03T19:22:46.889Z,6.03
2019-05-03T19:25:17.578Z,10.27
2019-05-03T19:27:47.887Z,10.03
2019-05-03T19:30:18.065Z,8.67
2019-05-03T19:32:48.174Z,8.50
2019-05-03T19:35:18.362Z,6.37
2019-05-03T19:37:48.415Z,12.10
2019-05-03T19:40:18.526Z,9.27
2019-05-03T19:42:49.655Z,7.93
2019-05-03T19:45:19.799Z,9.17
2019-05-03T19:47:50.149Z,5.30
2019-05-03T19:50:20.257Z,6.00
2019-05-03T19:53:07.158Z,7.50
2019-05-03T19:55:37.138Z,8.20
2019-05-03T19:58:07.106Z,7.00
2019-05-03T20:00:57.454Z,7.27
2019-05-03T20:03:36.710Z,5.50
2019-05-03T20:06:25.695Z,7.53
2019-05-03T20:09:02.416Z,7.93
2019-05-03T20:11:34.696Z,12.33
2019-05-03T20:14:04.876Z,9.33
2019-05-03T20:16:34.956Z,12.93
2019-05-03T20:19:17.485Z,10.80
2019-05-03T20:21:36.646Z,7.67
2019-05-03T20:24:06.633Z,6.20
2019-05-03T20:26:36.618Z,10.03
2019-05-03T20:29:06.590Z,8.07
2019-05-03T20:31:36.575Z,8.03
2019-05-03T20:34:06.539Z,7.83
2019-05-03T20:36:37.619Z,6.27
2019-05-03T20:39:07.591Z,8.60
2019-05-03T20:41:38.855Z,8.30
2019-05-03T20:44:47.239Z,6.20
2019-05-03T20:47:28.943Z,8.43
2019-05-03T20:50:15.562Z,7.83
2019-05-03T20:52:46.536Z,9.47
2019-05-03T20:55:16.506Z,7.27
2019-05-03T20:57:47.569Z,6.33
2019-05-03T21:00:20.246Z,5.03
2019-05-03T21:02:53.991Z,5.13
2019-05-03T21:05:29.633Z,7.87
2019-05-03T21:07:55.002Z,6.10
2019-05-03T21:10:25.093Z,12.13
2019-05-03T21:12:55.088Z,6.83
2019-05-03T21:15:35.437Z,6.83
2019-05-03T21:18:15.109Z,13.27
2019-05-03T21:21:06.042Z,11.37
2019-05-03T21:23:39.887Z,8.60
2019-05-03T21:26:13.413Z,9.23
2019-05-03T21:28:41.890Z,7.33
2019-05-03T21:31:11.878Z,8.43
2019-05-03T21:33:41.875Z,10.00
2019-05-03T21:36:11.862Z,10.23
2019-05-03T21:38:41.833Z,8.60
2019-05-03T21:41:11.824Z,8.37
2019-05-03T21:43:41.867Z,10.40
2019-05-03T21:46:16.430Z,8.43
2019-05-03T21:49:10.022Z,11.27
2019-05-03T21:51:40.070Z,10.00
2019-05-03T21:54:10.042Z,8.63
2019-05-03T21:56:40.022Z,7.80
2019-05-03T21:59:09.990Z,11.33
2019-05-03T22:01:42.413Z,9.17
2019-05-03T22:04:12.379Z,13.83
2019-05-03T22:06:44.298Z,14.53
2019-05-03T22:09:16.712Z,13.10
2019-05-03T22:11:46.768Z,13.13
2019-05-03T22:14:27.555Z,8.93
2019-05-03T22:17:31.618Z,10.53
2019-05-03T22:20:09.675Z,11.57
2019-05-03T22:22:47.202Z,9.57
2019-05-03T22:25:19.854Z,13.13
2019-05-03T22:27:49.907Z,9.63
2019-05-03T22:30:19.867Z,8.87
2019-05-03T22:32:49.852Z,10.93
2019-05-03T22:35:19.847Z,13.17
2019-05-03T22:37:49.822Z,8.93
2019-05-03T22:40:19.796Z,7.33
2019-05-03T22:42:49.856Z,15.70
2019-05-03T22:45:19.897Z,10.93
2019-05-03T22:47:49.950Z,7.67
2019-05-03T22:50:19.906Z,10.03
2019-05-03T22:52:49.886Z,12.07
2019-05-03T22:55:20.817Z,15.77
2019-05-03T22:57:50.810Z,12.23
2019-05-03T23:00:20.847Z,11.90
2019-05-03T23:02:50.915Z,10.97
2019-05-03T23:05:20.874Z,11.33
2019-05-03T23:07:50.869Z,15.13
2019-05-03T23:10:21.908Z,14.73
2019-05-03T23:12:51.885Z,10.47
2019-05-03T23:15:21.855Z,12.70
2019-05-03T23:17:51.839Z,11.50
2019-05-03T23:20:35.377Z,12.07
2019-05-03T23:23:05.542Z,10.97
2019-05-03T23:25:35.914Z,17.00
2019-05-03T23:28:05.931Z,16.23
2019-05-03T23:30:36.014Z,11.87
2019-05-03T23:33:06.038Z,15.47
2019-05-03T23:35:36.088Z,15.83
2019-05-03T23:38:06.171Z,15.87
2019-05-03T23:40:36.160Z,10.57
2019-05-03T23:43:06.255Z,16.70
2019-05-03T23:45:36.250Z,11.43
2019-05-03T23:48:06.263Z,20.17
2019-05-03T23:50:36.248Z,15.40
2019-05-03T23:53:06.262Z,15.73
2019-05-03T23:55:41.658Z,15.07
2019-05-03T23:58:11.767Z,17.95
